createdAt,value
2019-05-26T00:01:37.493Z,101030.51
2019-05-26T00:04:08.618Z,101032.73
2019-05-26T00:06:39.742Z,101030.13
2019-05-26T00:09:10.818Z,101029.24
2019-05-26T00:11:41.949Z,101027.52
2019-05-26T00:14:13.035Z,101027.56
2019-05-26T00:16:45.205Z,101020.02
2019-05-26T00:19:16.867Z,101020.02
2019-05-26T00:21:47.962Z,101015.18
2019-05-26T00:24:19.156Z,101011.20
2019-05-26T00:26:50.255Z,101008.57
2019-05-26T00:29:21.639Z,101004.14
2019-05-26T00:31:52.723Z,101003.30
2019-05-26T00:34:23.842Z,101005.97
2019-05-26T00:36:54.929Z,101004.69
2019-05-26T00:39:26.084Z,101008.25
2019-05-26T00:41:57.181Z,101003.41
2019-05-26T00:44:28.278Z,101001.64
2019-05-26T00:46:59.356Z,100995.86
2019-05-26T00:49:30.471Z,100991.91
2019-05-26T00:52:01.741Z,100988.80
2019-05-26T00:54:32.855Z,100988.36
2019-05-26T00:57:03.958Z,100991.03
2019-05-26T00:59:35.080Z,100986.63
2019-05-26T01:02:06.304Z,100986.19
2019-05-26T01:04:37.392Z,100983.53
2019-05-26T01:07:08.588Z,100984.42
2019-05-26T01:09:39.682Z,100986.24
2019-05-26T01:12:10.875Z,100981.81
2019-05-26T01:14:41.960Z,100978.30
2019-05-26T01:17:13.089Z,100973.86
2019-05-26T01:19:44.187Z,100971.24
2019-05-26T01:22:15.290Z,100969.47
2019-05-26T01:24:46.415Z,100972.58
2019-05-26T01:27:17.571Z,100967.70
2019-05-26T01:29:48.732Z,100959.30
2019-05-26T01:32:20.657Z,100964.64
2019-05-26T01:34:51.782Z,100953.09
2019-05-26T01:37:23.021Z,100958.43
2019-05-26T01:39:54.494Z,100957.55
2019-05-26T01:42:26.212Z,100955.80
2019-05-26T01:44:57.313Z,100959.80
2019-05-26T01:47:28.412Z,100956.70
2019-05-26T01:49:59.773Z,100955.37
2019-05-26T01:52:32.179Z,100948.26
2019-05-26T01:55:03.331Z,100947.82
2019-05-26T01:57:34.457Z,100946.94
2019-05-26T02:00:07.936Z,100947.38
2019-05-26T02:02:40.611Z,100943.38
2019-05-26T02:05:11.795Z,100946.48
2019-05-26T02:07:42.908Z,100943.38
2019-05-26T02:10:14.159Z,100944.27
2019-05-26T02:12:45.315Z,100936.72
2019-05-26T02:15:17.079Z,100935.38
2019-05-26T02:17:48.193Z,100939.38
2019-05-26T02:20:21.398Z,100933.16
2019-05-26T02:22:52.488Z,100929.16
2019-05-26T02:25:24.186Z,100932.71
2019-05-26T02:27:55.285Z,100929.13
2019-05-26T02:30:26.553Z,100935.78
2019-05-26T02:32:57.941Z,100927.79
2019-05-26T02:35:29.204Z,100921.58
2019-05-26T02:38:00.278Z,100924.68
2019-05-26T02:40:31.768Z,100920.24
2019-05-26T02:43:02.937Z,100918.05
2019-05-26T02:45:34.102Z,100921.56
2019-05-26T02:48:05.522Z,100920.68
2019-05-26T02:50:36.636Z,100911.80
2019-05-26T02:53:07.719Z,100912.24
2019-05-26T02:55:38.808Z,100914.02
2019-05-26T02:58:09.925Z,100901.59
2019-05-26T03:00:45.950Z,100900.70
2019-05-26T03:03:17.727Z,100903.81
2019-05-26T03:05:48.821Z,100904.70
2019-05-26T03:08:22.107Z,100906.03
2019-05-26T03:10:53.463Z,100905.59
2019-05-26T03:13:24.634Z,100897.15
2019-05-26T03:15:58.401Z,100899.37
2019-05-26T03:18:31.090Z,100893.59
2019-05-26T03:21:04.174Z,100894.03
2019-05-26T03:23:35.404Z,100891.36
2019-05-26T03:26:06.600Z,100893.09
2019-05-26T03:28:37.679Z,100886.87
2019-05-26T03:31:08.790Z,100884.64
2019-05-26T03:33:40.370Z,100884.16
2019-05-26T03:36:11.496Z,100881.92
2019-05-26T03:38:42.580Z,100885.88
2019-05-26T03:41:13.685Z,100878.76
2019-05-26T03:43:44.848Z,100877.42
2019-05-26T03:46:20.047Z,100873.83
2019-05-26T03:48:51.742Z,100870.27
2019-05-26T03:51:22.856Z,100873.81
2019-05-26T03:53:54.004Z,100871.14
2019-05-26T03:56:25.132Z,100874.24
2019-05-26T03:58:56.693Z,100870.20
2019-05-26T04:01:29.089Z,100871.97
2019-05-26T04:04:00.166Z,100874.18
2019-05-26T04:06:31.300Z,100869.74
2019-05-26T04:09:02.426Z,100863.02
2019-05-26T04:11:33.493Z,100863.46
2019-05-26T04:14:05.118Z,100870.07
2019-05-26T04:16:36.291Z,100859.86
2019-05-26T04:19:07.407Z,100862.95
2019-05-26T04:21:38.491Z,100851.39
2019-05-26T04:24:09.621Z,100849.56
2019-05-26T04:26:42.394Z,100853.10
2019-05-26T04:29:13.442Z,100851.28
2019-05-26T04:31:44.666Z,100852.61
2019-05-26T04:34:15.938Z,100849.94
2019-05-26T04:36:47.058Z,100848.11
2019-05-26T04:39:18.180Z,100854.31
2019-05-26T04:41:50.367Z,100845.38
2019-05-26T04:44:21.491Z,100845.42
2019-05-26T04:46:52.575Z,100844.91
2019-05-26T04:49:23.746Z,100847.08
2019-05-26T04:51:54.908Z,100842.62
2019-05-26T04:54:25.999Z,100840.39
2019-05-26T04:56:57.092Z,100849.66
2019-05-26T04:59:28.212Z,100846.94
2019-05-26T05:01:59.910Z,100842.92
2019-05-26T05:04:31.100Z,100841.58
2019-05-26T05:07:02.486Z,100839.28
2019-05-26T05:09:33.587Z,100840.13
2019-05-26T05:12:04.880Z,100836.11
2019-05-26T05:14:35.986Z,100826.71
2019-05-26T05:17:07.153Z,100824.47
2019-05-26T05:19:38.227Z,100819.97
2019-05-26T05:22:09.363Z,100821.67
2019-05-26T05:24:40.457Z,100826.11
2019-05-26T05:27:11.569Z,100816.30
2019-05-26T05:29:42.729Z,100811.83
2019-05-26T05:32:13.845Z,100806.47
2019-05-26T05:34:44.928Z,100810.84
2019-05-26T05:37:16.457Z,100810.34
2019-05-26T05:39:47.815Z,100810.27
2019-05-26T05:42:20.013Z,100802.23
2019-05-26T05:44:54.157Z,100806.14
2019-05-26T05:47:28.064Z,100805.57
2019-05-26T05:49:58.945Z,100809.04
2019-05-26T05:52:29.943Z,100808.14
2019-05-26T05:55:01.091Z,100805.77
2019-05-26T05:57:32.280Z,100805.64
2019-05-26T06:00:05.350Z,100801.02
2019-05-26T06:02:36.573Z,100792.84
2019-05-26T06:05:08.215Z,100801.57
2019-05-26T06:07:40.399Z,100799.58
2019-05-26T06:10:11.749Z,100801.14
2019-05-26T06:12:42.837Z,100800.04
2019-05-26T06:15:15.973Z,100796.72
2019-05-26T06:17:47.031Z,100800.06
2019-05-26T06:20:19.690Z,100800.28
2019-05-26T06:22:50.766Z,100799.64
2019-05-26T06:25:21.950Z,100794.56
2019-05-26T06:27:53.057Z,100795.76
2019-05-26T06:30:24.718Z,100797.01
2019-05-26T06:32:55.804Z,100792.00
2019-05-26T06:35:26.956Z,100788.39
2019-05-26T06:37:58.057Z,100786.09
2019-05-26T06:40:29.191Z,100786.52
2019-05-26T06:43:00.283Z,100796.67
2019-05-26T06:45:31.433Z,100791.33
2019-05-26T06:48:02.556Z,100782.84
2019-05-26T06:50:33.857Z,100788.59
2019-05-26T06:53:04.967Z,100787.20
2019-05-26T06:55:36.076Z,100785.83
2019-05-26T06:58:07.207Z,100787.14
2019-05-26T07:00:38.331Z,100777.69
2019-05-26T07:03:09.450Z,100779.39
2019-05-26T07:05:40.565Z,100780.70
2019-05-26T07:08:11.818Z,100776.66
2019-05-26T07:10:42.983Z,100780.11
2019-05-26T07:13:14.079Z,100785.82
2019-05-26T07:15:45.227Z,100787.10
2019-05-26T07:18:16.338Z,100787.05
2019-05-26T07:20:47.458Z,100783.37
2019-05-26T07:23:18.549Z,100787.66
2019-05-26T07:25:49.691Z,100782.61
2019-05-26T07:28:22.256Z,100779.77
2019-05-26T07:30:53.369Z,100776.45
2019-05-26T07:33:24.540Z,100772.70
2019-05-26T07:35:55.664Z,100772.58
2019-05-26T07:38:26.754Z,100772.81
2019-05-26T07:40:57.864Z,100767.25
2019-05-26T07:43:28.987Z,100765.27
2019-05-26T07:46:00.076Z,100768.23
2019-05-26T07:48:34.972Z,100766.76
2019-05-26T07:51:03.971Z,100762.53
2019-05-26T07:53:35.085Z,100768.25
2019-05-26T07:56:06.320Z,100773.94
2019-05-26T07:58:37.440Z,100763.11
2019-05-26T08:01:08.598Z,100764.80
2019-05-26T08:03:40.800Z,100774.50
2019-05-26T08:06:11.899Z,100774.83
2019-05-26T08:08:43.003Z,100776.91
2019-05-26T08:11:14.101Z,100775.84
2019-05-26T08:13:45.228Z,100764.13
2019-05-26T08:16:16.338Z,100761.77
2019-05-26T08:18:47.463Z,100759.41
2019-05-26T08:21:18.555Z,100757.88
2019-05-26T08:23:49.773Z,100751.45
2019-05-26T08:26:21.360Z,100751.23
2019-05-26T08:28:54.131Z,100750.58
2019-05-26T08:31:25.273Z,100748.63
2019-05-26T08:33:56.397Z,100735.87
2019-05-26T08:36:27.490Z,100731.19
2019-05-26T08:38:58.623Z,100730.88
2019-05-26T08:41:29.801Z,100725.27
2019-05-26T08:44:00.935Z,100729.56
2019-05-26T08:46:32.011Z,100724.08
2019-05-26T08:49:03.215Z,100723.99
2019-05-26T08:51:34.299Z,100719.84
2019-05-26T08:54:05.656Z,100728.63
2019-05-26T08:56:36.720Z,100730.72
2019-05-26T08:59:07.896Z,100723.42
2019-05-26T09:01:39.826Z,100732.20
2019-05-26T09:04:10.980Z,100722.59
2019-05-26T09:06:42.043Z,100720.62
2019-05-26T09:09:13.127Z,100717.27
2019-05-26T09:11:44.202Z,100711.69
2019-05-26T09:14:15.341Z,100722.51
2019-05-26T09:16:46.450Z,100718.13
2019-05-26T09:19:17.532Z,100715.47
2019-05-26T09:21:48.594Z,100713.59
2019-05-26T09:24:20.827Z,100713.00
2019-05-26T09:26:51.971Z,100704.77
2019-05-26T09:29:23.075Z,100701.34
2019-05-26T09:31:54.188Z,100708.41
2019-05-26T09:34:25.338Z,100703.66
2019-05-26T09:36:57.204Z,100701.25
2019-05-26T09:39:28.626Z,100700.23
2019-05-26T09:41:59.802Z,100693.45
2019-05-26T09:44:30.934Z,100698.83
2019-05-26T09:47:02.074Z,100702.45
2019-05-26T09:49:33.243Z,100711.45
2019-05-26T09:52:04.347Z,100712.94
2019-05-26T09:54:35.514Z,100708.50
2019-05-26T09:57:06.630Z,100711.33
2019-05-26T09:59:37.779Z,100703.77
2019-05-26T10:02:08.876Z,100708.77
2019-05-26T10:04:40.161Z,100711.98
2019-05-26T10:07:15.696Z,100702.56
2019-05-26T10:09:44.246Z,100707.42
2019-05-26T10:12:15.387Z,100702.42
2019-05-26T10:14:47.858Z,100695.23
2019-05-26T10:17:23.203Z,100692.48
2019-05-26T10:19:53.484Z,100699.22
2019-05-26T10:22:24.695Z,100696.94
2019-05-26T10:24:55.788Z,100698.61
2019-05-26T10:27:26.916Z,100690.95
2019-05-26T10:29:58.002Z,100686.44
2019-05-26T10:32:29.188Z,100688.20
2019-05-26T10:35:00.290Z,100669.74
2019-05-26T10:37:31.396Z,100676.74
2019-05-26T10:40:02.671Z,100674.35
2019-05-26T10:42:34.880Z,100684.42
2019-05-26T10:45:10.219Z,100670.77
2019-05-26T10:47:41.628Z,100672.73
2019-05-26T10:50:15.725Z,100667.47
2019-05-26T10:52:46.949Z,100663.12
2019-05-26T10:55:18.491Z,100668.94
2019-05-26T10:57:49.574Z,100667.27
2019-05-26T11:00:22.056Z,100662.91
2019-05-26T11:02:53.154Z,100650.58
2019-05-26T11:05:24.240Z,100660.99
2019-05-26T11:07:55.297Z,100659.38
2019-05-26T11:10:26.386Z,100651.90
2019-05-26T11:12:57.453Z,100649.77
2019-05-26T11:15:28.525Z,100650.91
2019-05-26T11:18:00.197Z,100646.64
2019-05-26T11:20:31.394Z,100644.67
2019-05-26T11:23:02.513Z,100641.50
2019-05-26T11:25:34.959Z,100641.70
2019-05-26T11:28:06.423Z,100633.39
2019-05-26T11:30:38.967Z,100625.48
2019-05-26T11:33:11.674Z,100615.66
2019-05-26T11:35:42.793Z,100621.41
2019-05-26T11:38:13.899Z,100626.23
2019-05-26T11:40:45.099Z,100626.14
2019-05-26T11:43:17.504Z,100621.80
2019-05-26T11:45:49.055Z,100615.36
2019-05-26T11:48:21.413Z,100608.14
2019-05-26T11:50:52.518Z,100611.41
2019-05-26T11:53:23.646Z,100602.66
2019-05-26T11:55:54.698Z,100606.48
2019-05-26T11:58:25.832Z,100608.45
2019-05-26T12:00:56.903Z,100597.90
2019-05-26T12:03:27.977Z,100595.73
2019-05-26T12:05:59.923Z,100598.60
2019-05-26T12:08:31.001Z,100601.30
2019-05-26T12:11:02.346Z,100597.09
2019-05-26T12:13:36.566Z,100592.09
2019-05-26T12:16:06.174Z,100596.38
2019-05-26T12:18:37.286Z,100596.22
2019-05-26T12:21:08.298Z,100589.34
2019-05-26T12:23:40.735Z,100585.13
2019-05-26T12:26:11.801Z,100591.70
2019-05-26T12:28:42.903Z,100576.33
2019-05-26T12:31:13.967Z,100580.68
2019-05-26T12:33:45.095Z,100578.86
2019-05-26T12:36:18.110Z,100577.44
2019-05-26T12:38:52.385Z,100571.57
2019-05-26T12:41:24.077Z,100574.81
2019-05-26T12:43:55.173Z,100565.43
2019-05-26T12:46:26.528Z,100566.72
2019-05-26T12:48:57.595Z,100562.02
2019-05-26T12:51:28.675Z,100562.77
2019-05-26T12:54:00.005Z,100568.77
2019-05-26T12:56:32.142Z,100555.54
2019-05-26T12:59:03.285Z,100558.47
2019-05-26T13:01:34.355Z,100549.63
2019-05-26T13:04:05.501Z,100553.53
2019-05-26T13:06:36.578Z,100556.90
2019-05-26T13:09:11.326Z,100550.38
2019-05-26T13:11:42.394Z,100555.06
2019-05-26T13:14:13.465Z,100547.01
2019-05-26T13:16:45.907Z,100540.30
2019-05-26T13:19:16.995Z,100548.48
2019-05-26T13:21:48.059Z,100541.23
2019-05-26T13:24:20.304Z,100545.25
2019-05-26T13:26:52.474Z,100538.54
2019-05-26T13:29:25.925Z,100539.96
2019-05-26T13:31:56.306Z,100532.95
2019-05-26T13:34:27.402Z,100539.37
2019-05-26T13:36:58.477Z,100540.94
2019-05-26T13:39:29.595Z,100543.89
2019-05-26T13:42:00.652Z,100535.19
2019-05-26T13:44:32.164Z,100537.42
2019-05-26T13:47:03.220Z,100527.88
2019-05-26T13:49:34.345Z,100526.34
2019-05-26T13:52:05.540Z,100530.69
2019-05-26T13:54:36.640Z,100525.61
2019-05-26T13:57:07.697Z,100524.54
2019-05-26T13:59:38.776Z,100521.58
2019-05-26T14:02:09.836Z,100526.03
2019-05-26T14:04:40.911Z,100517.84
2019-05-26T14:07:11.966Z,100522.38
2019-05-26T14:09:43.054Z,100511.08
2019-05-26T14:12:14.115Z,100513.59
2019-05-26T14:14:45.215Z,100502.11
2019-05-26T14:17:16.675Z,100497.91
2019-05-26T14:19:49.108Z,100499.67
2019-05-26T14:22:21.239Z,100496.14
2019-05-26T14:24:54.464Z,100491.05
2019-05-26T14:27:25.108Z,100497.45
2019-05-26T14:29:56.202Z,100499.56
2019-05-26T14:32:27.271Z,100488.18
2019-05-26T14:34:58.343Z,100490.77
2019-05-26T14:37:29.477Z,100496.19
2019-05-26T14:40:00.582Z,100486.23
2019-05-26T14:42:31.657Z,100483.64
2019-05-26T14:45:04.118Z,100481.81
2019-05-26T14:47:35.466Z,100485.36
2019-05-26T14:50:10.310Z,100483.73
2019-05-26T14:52:41.426Z,100484.20
2019-05-26T14:55:12.743Z,100476.88
2019-05-26T14:57:44.073Z,100468.36
2019-05-26T15:00:17.469Z,100473.86
2019-05-26T15:02:48.524Z,100462.27
2019-05-26T15:05:20.919Z,100461.88
2019-05-26T15:07:52.017Z,100458.89
2019-05-26T15:10:24.741Z,100460.72
2019-05-26T15:12:55.830Z,100449.11
2019-05-26T15:15:27.669Z,100442.90
2019-05-26T15:18:00.344Z,100450.53
2019-05-26T15:20:31.412Z,100450.63
2019-05-26T15:23:02.511Z,100444.02
2019-05-26T15:25:33.591Z,100443.06
2019-05-26T15:28:04.683Z,100441.31
2019-05-26T15:30:35.821Z,100449.83
2019-05-26T15:33:06.906Z,100450.02
2019-05-26T15:35:37.977Z,100439.67
2019-05-26T15:38:22.478Z,100438.41
2019-05-26T15:40:55.313Z,100429.13
2019-05-26T15:43:26.732Z,100431.36
2019-05-26T15:45:57.797Z,100435.98
2019-05-26T15:48:28.863Z,100431.05
2019-05-26T15:51:00.001Z,100424.39
2019-05-26T15:53:31.058Z,100434.34
2019-05-26T15:56:03.225Z,100427.66
2019-05-26T15:58:35.368Z,100421.48
2019-05-26T16:01:04.954Z,100417.44
2019-05-26T16:03:36.026Z,100412.11
2019-05-26T16:06:07.161Z,100414.41
2019-05-26T16:08:38.224Z,100394.13
2019-05-26T16:11:09.295Z,100406.30
2019-05-26T16:13:40.349Z,100414.53
2019-05-26T16:16:11.452Z,100407.84
2019-05-26T16:18:42.504Z,100401.16
2019-05-26T16:21:27.047Z,100400.29
2019-05-26T16:23:46.340Z,100401.75
2019-05-26T16:26:17.398Z,100399.53
2019-05-26T16:28:48.454Z,100390.63
2019-05-26T16:31:19.516Z,100387.55
2019-05-26T16:33:50.572Z,100392.96
2019-05-26T16:36:21.803Z,100381.75
2019-05-26T16:38:52.852Z,100387.16
2019-05-26T16:41:23.906Z,100388.11
2019-05-26T16:43:54.965Z,100384.53
2019-05-26T16:46:55.916Z,100383.27
2019-05-26T16:49:18.914Z,100381.15
2019-05-26T16:51:50.009Z,100377.66
2019-05-26T16:54:21.128Z,100367.03
2019-05-26T16:56:52.194Z,100370.33
2019-05-26T16:59:23.265Z,100369.53
2019-05-26T17:01:54.352Z,100360.62
2019-05-26T17:04:25.398Z,100355.81
2019-05-26T17:06:56.487Z,100344.60
2019-05-26T17:09:27.586Z,100333.39
2019-05-26T17:11:58.661Z,100336.02
2019-05-26T17:14:29.765Z,100332.44
2019-05-26T17:17:14.320Z,100328.37
2019-05-26T17:19:33.582Z,100337.92
2019-05-26T17:22:04.693Z,100334.45
2019-05-26T17:24:35.758Z,100342.65
2019-05-26T17:27:06.846Z,100347.77
2019-05-26T17:29:37.911Z,100338.87
2019-05-26T17:32:09.006Z,100341.77
2019-05-26T17:34:40.073Z,100345.82
2019-05-26T17:37:11.158Z,100349.95
2019-05-26T17:39:42.214Z,100352.77
2019-05-26T17:42:13.313Z,100344.55
2019-05-26T17:44:44.388Z,100346.05
2019-05-26T17:47:29.206Z,100343.15
2019-05-26T17:49:48.256Z,100342.67
2019-05-26T17:52:19.302Z,100339.29
2019-05-26T17:54:50.407Z,100348.34
2019-05-26T17:57:22.519Z,100345.44
2019-05-26T17:59:53.613Z,100342.34
2019-05-26T18:02:24.686Z,100341.55
2019-05-26T18:04:55.761Z,100342.61
2019-05-26T18:07:26.844Z,100345.39
2019-05-26T18:09:57.953Z,100348.28
2019-05-26T18:12:29.063Z,100337.66
2019-05-26T18:15:00.166Z,100335.98
2019-05-26T18:17:45.864Z,100333.88
2019-05-26T18:20:06.195Z,100326.80
2019-05-26T18:22:37.428Z,100331.44
2019-05-26T18:25:09.317Z,100323.48
2019-05-26T18:27:40.414Z,100328.13
2019-05-26T18:30:11.765Z,100330.03
2019-05-26T18:32:42.828Z,100330.51
2019-05-26T18:35:14.046Z,100323.39
2019-05-26T18:37:45.141Z,100321.72
2019-05-26T18:40:17.977Z,100321.80
2019-05-26T18:42:49.048Z,100320.55
2019-05-26T18:45:20.150Z,100324.20
2019-05-26T18:48:02.500Z,100322.09
2019-05-26T18:50:24.092Z,100325.27
2019-05-26T18:52:55.157Z,100314.14
2019-05-26T18:55:26.297Z,100311.05
2019-05-26T18:57:57.398Z,100309.33
2019-05-26T19:00:30.873Z,100316.08
2019-05-26T19:03:01.336Z,100311.63
2019-05-26T19:05:36.036Z,100310.83
2019-05-26T19:08:05.243Z,100310.06
2019-05-26T19:10:36.318Z,100313.24
2019-05-26T19:13:10.606Z,100303.47
2019-05-26T19:15:40.184Z,100308.50
2019-05-26T19:18:20.068Z,100301.36
2019-05-26T19:20:44.145Z,100295.55
2019-05-26T19:23:15.213Z,100301.50
2019-05-26T19:25:46.344Z,100301.98
2019-05-26T19:28:17.410Z,100296.66
2019-05-26T19:30:48.488Z,100296.27
2019-05-26T19:33:21.086Z,100299.91
2019-05-26T19:35:52.176Z,100304.47
2019-05-26T19:38:23.248Z,100304.54
2019-05-26T19:40:54.323Z,100303.20
2019-05-26T19:43:25.389Z,100297.98
2019-05-26T19:45:56.595Z,100305.60
2019-05-26T19:48:36.653Z,100296.23
2019-05-26T19:51:00.452Z,100302.18
2019-05-26T19:53:31.517Z,100302.18
2019-05-26T19:56:02.602Z,100299.11
2019-05-26T19:58:33.691Z,100294.66
2019-05-26T20:01:04.742Z,100302.77
2019-05-26T20:03:35.806Z,100293.46
2019-05-26T20:06:06.879Z,100296.16
2019-05-26T20:08:37.955Z,100299.84
2019-05-26T20:11:09.083Z,100289.13
2019-05-26T20:13:40.135Z,100290.95
2019-05-26T20:16:11.260Z,100293.25
2019-05-26T20:18:42.312Z,100288.84
2019-05-26T20:21:13.383Z,100287.09
2019-05-26T20:23:44.450Z,100292.08
2019-05-26T20:26:15.510Z,100288.51
2019-05-26T20:28:46.572Z,100283.30
2019-05-26T20:31:17.618Z,100283.19
2019-05-26T20:33:48.686Z,100282.42
2019-05-26T20:36:19.742Z,100280.59
2019-05-26T20:38:50.806Z,100275.27
2019-05-26T20:41:21.885Z,100273.05
2019-05-26T20:43:52.943Z,100273.52
2019-05-26T20:46:24.040Z,100272.36
2019-05-26T20:48:55.102Z,100273.70
2019-05-26T20:51:26.192Z,100274.18
2019-05-26T20:53:57.433Z,100274.29
2019-05-26T20:56:28.505Z,100272.06
2019-05-26T20:58:59.575Z,100269.84
2019-05-26T21:01:30.664Z,100264.45
2019-05-26T21:04:01.792Z,100267.69
2019-05-26T21:06:32.864Z,100269.44
2019-05-26T21:09:05.569Z,100262.77
2019-05-26T21:11:36.635Z,100261.53
2019-05-26T21:14:07.703Z,100256.50
2019-05-26T21:16:38.808Z,100259.78
2019-05-26T21:19:09.900Z,100253.52
2019-05-26T21:21:40.958Z,100253.58
2019-05-26T21:24:12.055Z,100254.64
2019-05-26T21:26:43.142Z,100252.41
2019-05-26T21:29:14.347Z,100247.97
2019-05-26T21:31:45.515Z,100248.08
2019-05-26T21:34:16.595Z,100249.90
2019-05-26T21:36:47.671Z,100250.37
2019-05-26T21:39:18.740Z,100250.45
2019-05-26T21:41:49.838Z,100245.53
2019-05-26T21:44:20.930Z,100251.39
2019-05-26T21:46:51.988Z,100253.22
2019-05-26T21:49:23.089Z,100250.52
2019-05-26T21:51:54.167Z,100244.76
2019-05-26T21:54:25.241Z,100245.71
2019-05-26T21:56:56.315Z,100243.48
2019-05-26T21:59:27.444Z,100237.69
2019-05-26T22:01:58.529Z,100243.09
2019-05-26T22:04:29.606Z,100239.22
2019-05-26T22:09:30.479Z,100228.98
2019-05-26T22:12:01.907Z,100232.80
2019-05-26T22:14:32.982Z,100220.78
2019-05-26T22:17:04.124Z,100223.55
2019-05-26T22:19:35.198Z,100218.23
2019-05-26T22:22:07.990Z,100217.35
2019-05-26T22:24:39.068Z,100215.60
2019-05-26T22:27:10.135Z,100220.20
2019-05-26T22:29:41.216Z,100217.09
2019-05-26T22:32:12.287Z,100209.48
2019-05-26T22:34:43.354Z,100208.64
2019-05-26T22:37:14.467Z,100205.14
2019-05-26T22:39:45.564Z,100200.70
2019-05-26T22:42:16.640Z,100202.52
2019-05-26T22:44:47.756Z,100198.58
2019-05-26T22:47:18.825Z,100187.39
2019-05-26T22:49:49.922Z,100188.75
2019-05-26T22:52:21.000Z,100180.73
2019-05-26T22:54:52.095Z,100178.51
2019-05-26T22:57:23.166Z,100175.81
2019-05-26T22:59:54.280Z,100182.19
2019-05-26T23:02:25.351Z,100182.66
2019-05-26T23:04:56.457Z,100186.30
2019-05-26T23:07:27.526Z,100183.20
2019-05-26T23:09:58.613Z,100176.94
2019-05-26T23:12:29.686Z,100179.27
2019-05-26T23:15:00.793Z,100179.63
2019-05-26T23:17:31.871Z,100177.92
2019-05-26T23:20:02.958Z,100180.11
2019-05-26T23:22:34.043Z,100173.08
2019-05-26T23:25:08.167Z,100164.98
2019-05-26T23:27:39.250Z,100166.41
2019-05-26T23:30:11.413Z,100159.37
2019-05-26T23:32:42.507Z,100157.62
2019-05-26T23:35:13.857Z,100154.94
2019-05-26T23:37:44.927Z,100153.19
2019-05-26T23:40:16.091Z,100148.77
2019-05-26T23:42:47.184Z,100148.77
2019-05-26T23:45:18.252Z,100147.03
2019-05-26T23:47:49.341Z,100136.72
2019-05-26T23:50:20.413Z,100135.45
2019-05-26T23:52:51.483Z,100143.94
2019-05-26T23:55:22.552Z,100136.39
2019-05-26T23:57:53.626Z,100144.48
